Cape Flattery, Washington
Current Conditions -  °F | °C
As of 11:09 AM on Friday 21 Nov 2014 (Local Time) from KUIL Reporting Station
Moderate Rain Moderate Rain  
Wind Chill: 51°   Ceiling: 1300
Heat Index: 51°   Visibility: 1.7mi
Dew Point: 50°   Wind: 14mph
Humidity: 96%   Direction: 160°SSE
Pressure: 29.48"   Gusts: 30mph
Location:  48.3685°N, 124.623°W
Report Text: KUIL 211909Z AUTO 16012G26KT 1 3/4SM RA BR BKN013 OVC021 11/10 A2948 RMK AO2 PK WND 14026/1909 P0006 T01060100
Loading
Personal Weather Stations






























Interactive Weather Map New forecast layout! Learn more

10-Day Weather Forecast

Advertisements
Track Severe Weather on mobile